Time;durP1;ratioP1;P1;durP2;ratioP2;P2;SDS_P1;SDS_P2;PMS_P1;PMS_P2;Temp;Humidity;BMP_temperature;BMP_pressure;BME280_temperature;BME280_humidity;BME280_pressure;Samples;Min_cycle;Max_cycle;Signal;HPM_P1;HPM_P2
2022/07/06 00:00:50;;;;;;;0.77;0.68;;;22.30;75.90;;;;;;5032264;28;20053;-59
2022/07/06 00:03:15;;;;;;;0.50;0.47;;;22.30;76.00;;;;;;5031447;28;20057;-59
2022/07/06 00:05:42;;;;;;;0.80;0.47;;;22.30;76.00;;;;;;5031055;28;20054;-58
2022/07/06 00:08:07;;;;;;;0.40;0.40;;;22.30;76.00;;;;;;5030916;28;20513;-57
2022/07/06 00:10:33;;;;;;;0.82;0.60;;;22.30;76.00;;;;;;5031489;28;20037;-59
2022/07/06 00:12:59;;;;;;;0.30;0.30;;;22.30;76.00;;;;;;5031885;28;20072;-59
2022/07/06 00:15:24;;;;;;;0.98;0.73;;;22.30;76.10;;;;;;5031025;28;20132;-59
2022/07/06 00:17:50;;;;;;;0.60;0.60;;;22.30;76.10;;;;;;5031343;28;20132;-59
2022/07/06 00:20:16;;;;;;;0.82;0.60;;;22.30;76.10;;;;;;5030516;28;20049;-59
2022/07/06 00:22:41;;;;;;;0.50;0.50;;;22.30;76.10;;;;;;5040129;28;20140;-59
2022/07/06 00:25:08;;;;;;;0.50;0.50;;;22.30;76.10;;;;;;5051424;28;20049;-59
2022/07/06 00:27:33;;;;;;;0.40;0.40;;;22.30;76.20;;;;;;5051221;28;20049;-59
2022/07/06 00:29:59;;;;;;;1.75;0.50;;;22.30;76.20;;;;;;5050661;28;20055;-59
2022/07/06 00:32:27;;;;;;;0.50;0.50;;;22.30;76.90;;;;;;5039518;28;20134;-58
2022/07/06 00:34:52;;;;;;;0.93;0.80;;;22.30;76.20;;;;;;5031432;28;20501;-59
2022/07/06 00:37:18;;;;;;;0.43;0.43;;;22.30;76.30;;;;;;5044775;28;20127;-59
2022/07/06 00:39:44;;;;;;;0.40;0.40;;;22.30;76.30;;;;;;5047410;28;20033;-59
2022/07/06 00:42:09;;;;;;;0.50;0.47;;;22.20;76.20;;;;;;5051082;28;20487;-57
2022/07/06 00:44:35;;;;;;;0.50;0.50;;;22.30;76.30;;;;;;5050704;28;20049;-59
2022/07/06 00:47:01;;;;;;;0.52;0.52;;;22.30;76.30;;;;;;5050791;28;20048;-59
2022/07/06 00:52:11;;;;;;;0.50;0.40;;;22.30;76.40;;;;;;5049037;28;20056;-58
2022/07/06 00:54:38;;;;;;;1.05;0.50;;;22.20;76.30;;;;;;5051200;28;20049;-59
2022/07/06 00:57:04;;;;;;;0.68;0.60;;;22.30;76.40;;;;;;5050991;28;20072;-59
2022/07/06 00:59:30;;;;;;;0.40;0.40;;;22.30;76.50;;;;;;5049440;28;20303;-59
2022/07/06 01:01:55;;;;;;;0.52;0.50;;;22.30;76.50;;;;;;5050784;28;20095;-59
2022/07/06 01:04:21;;;;;;;0.50;0.50;;;22.30;76.50;;;;;;5050107;28;20143;-59
2022/07/06 01:06:47;;;;;;;0.40;0.40;;;22.20;76.40;;;;;;5048790;28;20045;-59
2022/07/06 01:09:13;;;;;;;0.60;0.47;;;22.30;76.50;;;;;;5050241;28;20056;-58
2022/07/06 01:11:39;;;;;;;0.50;0.43;;;22.20;76.50;;;;;;5050268;28;20048;-59
2022/07/06 01:14:05;;;;;;;0.70;0.60;;;22.20;76.50;;;;;;5050135;28;20045;-59
2022/07/06 01:16:31;;;;;;;0.73;0.50;;;22.30;76.60;;;;;;5049888;28;20049;-59
2022/07/06 01:18:57;;;;;;;1.35;0.40;;;22.20;76.60;;;;;;5049961;28;20053;-59
2022/07/06 01:21:23;;;;;;;0.60;0.60;;;22.20;76.60;;;;;;5030413;28;20048;-57
2022/07/06 01:23:48;;;;;;;0.70;0.55;;;22.20;76.60;;;;;;5030027;28;20132;-59
2022/07/06 01:26:20;;;;;;;0.50;0.50;;;22.20;76.70;;;;;;5038213;28;20079;-57
2022/07/06 01:28:46;;;;;;;0.45;0.40;;;22.20;76.60;;;;;;5050324;28;20049;-59
2022/07/06 01:31:17;;;;;;;0.50;0.50;;;22.20;76.70;;;;;;5050197;28;20127;-59
2022/07/06 01:33:43;;;;;;;0.60;0.50;;;22.20;76.70;;;;;;5049814;28;20053;-59
2022/07/06 01:36:10;;;;;;;1.05;0.50;;;22.20;76.70;;;;;;5049422;28;20459;-59
2022/07/06 01:38:49;;;;;;;0.40;0.40;;;22.20;76.70;;;;;;5049011;28;20044;-59
2022/07/06 01:41:16;;;;;;;0.65;0.57;;;22.20;76.80;;;;;;5039282;28;20395;-58
2022/07/06 01:43:42;;;;;;;0.40;0.40;;;22.20;76.80;;;;;;5041935;28;20049;-59
2022/07/06 01:46:08;;;;;;;0.40;0.40;;;22.20;76.80;;;;;;5050034;28;20056;-59
2022/07/06 01:48:34;;;;;;;0.47;0.35;;;22.20;76.80;;;;;;5049195;28;20851;-59
2022/07/06 01:50:59;;;;;;;0.85;0.80;;;22.20;76.80;;;;;;5049043;28;20045;-60
2022/07/06 01:53:25;;;;;;;0.98;0.50;;;22.20;76.80;;;;;;5048570;28;20044;-59
2022/07/06 01:55:51;;;;;;;0.45;0.45;;;22.20;76.80;;;;;;5037707;28;20049;-59
2022/07/06 01:58:16;;;;;;;0.40;0.40;;;22.20;76.90;;;;;;5029514;28;20053;-58
2022/07/06 02:00:42;;;;;;;0.68;0.40;;;22.20;76.90;;;;;;5029646;28;20034;-59
2022/07/06 02:03:08;;;;;;;0.38;0.38;;;22.20;76.90;;;;;;5029400;28;20132;-59
2022/07/06 02:05:34;;;;;;;0.63;0.50;;;22.20;77.00;;;;;;5032120;28;20147;-59
2022/07/06 02:07:59;;;;;;;0.40;0.40;;;22.20;77.00;;;;;;5048711;28;20049;-58
2022/07/06 02:10:25;;;;;;;0.50;0.50;;;22.20;77.00;;;;;;5039088;28;20070;-59
2022/07/06 02:12:51;;;;;;;0.65;0.50;;;22.20;77.00;;;;;;5049565;28;20040;-59
2022/07/06 02:15:16;;;;;;;0.60;0.52;;;22.20;77.00;;;;;;5048669;28;20063;-58
2022/07/06 02:17:42;;;;;;;0.43;0.43;;;22.20;77.00;;;;;;5048671;28;20067;-59
2022/07/06 02:20:08;;;;;;;0.47;0.47;;;22.20;77.00;;;;;;5048606;28;20124;-59
2022/07/06 02:22:34;;;;;;;0.45;0.40;;;22.20;77.10;;;;;;5048047;28;20455;-59
2022/07/06 02:25:00;;;;;;;0.50;0.47;;;22.20;77.10;;;;;;5049453;28;20131;-59
2022/07/06 02:27:25;;;;;;;0.55;0.40;;;22.20;77.10;;;;;;5047048;28;20084;-59
2022/07/06 02:29:51;;;;;;;0.35;0.35;;;22.20;77.10;;;;;;5047945;28;20550;-59
2022/07/06 02:32:17;;;;;;;1.05;0.45;;;22.20;77.10;;;;;;5047762;28;20103;-59
2022/07/06 02:34:43;;;;;;;1.05;0.50;;;22.20;77.20;;;;;;5027469;28;20475;-58
2022/07/06 02:37:09;;;;;;;0.63;0.60;;;22.20;77.20;;;;;;5027588;28;20148;-59
2022/07/06 02:39:34;;;;;;;0.65;0.40;;;22.20;77.20;;;;;;5028921;28;20527;-59
2022/07/06 02:42:00;;;;;;;0.50;0.50;;;22.20;77.20;;;;;;5029437;28;20072;-59
2022/07/06 02:44:26;;;;;;;0.77;0.70;;;22.20;77.20;;;;;;5028686;28;20076;-59
2022/07/06 02:46:51;;;;;;;0.60;0.40;;;22.20;77.20;;;;;;5045665;28;20115;-59
2022/07/06 02:49:17;;;;;;;0.60;0.52;;;22.20;77.20;;;;;;5044816;28;20041;-59
2022/07/06 02:51:43;;;;;;;0.47;0.47;;;22.20;77.20;;;;;;5026400;28;20049;-59
2022/07/06 02:54:08;;;;;;;0.17;0.17;;;22.20;77.30;;;;;;5038199;28;20049;-59
2022/07/06 02:56:34;;;;;;;0.75;0.57;;;22.20;77.30;;;;;;5048493;28;20052;-59
2022/07/06 02:59:00;;;;;;;1.35;0.40;;;22.20;77.30;;;;;;5048658;28;20056;-59
2022/07/06 03:01:26;;;;;;;0.80;0.40;;;22.20;77.30;;;;;;5046786;28;20071;-59
2022/07/06 03:03:51;;;;;;;0.40;0.40;;;22.20;77.40;;;;;;5048780;28;20037;-59
2022/07/06 03:06:17;;;;;;;0.57;0.52;;;22.20;77.40;;;;;;5047788;28;20052;-59
2022/07/06 03:08:43;;;;;;;0.40;0.40;;;22.20;77.40;;;;;;5047819;28;20597;-59
2022/07/06 03:11:09;;;;;;;0.52;0.43;;;22.20;77.40;;;;;;5043463;28;20037;-60
2022/07/06 03:13:35;;;;;;;0.45;0.45;;;22.20;77.40;;;;;;5028377;28;20068;-59
2022/07/06 03:16:01;;;;;;;0.82;0.45;;;22.20;77.50;;;;;;5044389;28;20044;-59
2022/07/06 03:18:27;;;;;;;0.47;0.47;;;22.20;77.50;;;;;;5047935;28;20053;-59
2022/07/06 03:20:53;;;;;;;0.95;0.52;;;22.20;77.50;;;;;;5047974;28;20041;-59
2022/07/06 03:23:19;;;;;;;0.50;0.50;;;22.20;77.50;;;;;;5047647;28;20122;-59
2022/07/06 03:25:45;;;;;;;0.45;0.40;;;22.20;77.50;;;;;;5048053;28;20049;-59
2022/07/06 03:28:10;;;;;;;0.43;0.43;;;22.20;77.50;;;;;;5048290;28;20057;-59
2022/07/06 03:30:36;;;;;;;0.47;0.47;;;22.10;77.50;;;;;;5047753;28;20386;-59
2022/07/06 03:33:02;;;;;;;1.15;0.45;;;22.20;77.50;;;;;;5044297;28;20091;-59
2022/07/06 03:35:27;;;;;;;0.45;0.45;;;22.20;77.60;;;;;;5027177;28;20051;-59
2022/07/06 03:37:53;;;;;;;0.40;0.40;;;22.20;77.60;;;;;;5037201;28;20045;-59
2022/07/06 03:40:19;;;;;;;0.68;0.60;;;22.20;77.60;;;;;;5048657;28;20048;-59
2022/07/06 03:42:44;;;;;;;0.50;0.50;;;22.20;77.70;;;;;;5048149;28;20505;-59
2022/07/06 03:45:11;;;;;;;0.40;0.40;;;22.20;77.70;;;;;;5048349;28;20101;-59
2022/07/06 03:47:36;;;;;;;0.43;0.43;;;22.10;77.60;;;;;;5047805;28;20053;-59
2022/07/06 03:50:03;;;;;;;0.45;0.30;;;22.10;77.60;;;;;;5047697;28;20048;-59
2022/07/06 03:52:28;;;;;;;0.40;0.40;;;22.10;77.60;;;;;;5046739;28;20471;-59
2022/07/06 03:54:55;;;;;;;0.50;0.50;;;22.10;77.60;;;;;;5036636;28;20085;-59
2022/07/06 03:57:21;;;;;;;0.38;0.38;;;22.10;77.70;;;;;;5028424;28;20049;-59
2022/07/06 03:59:47;;;;;;;1.00;0.40;;;22.10;77.70;;;;;;5028046;28;20057;-59
2022/07/06 04:02:13;;;;;;;0.73;0.50;;;22.10;77.70;;;;;;5027906;28;20045;-59
2022/07/06 04:04:38;;;;;;;0.38;0.38;;;22.10;77.70;;;;;;5027775;28;20085;-59
2022/07/06 04:07:04;;;;;;;0.93;0.60;;;22.10;77.80;;;;;;5029617;28;20046;-59
2022/07/06 04:09:30;;;;;;;0.40;0.40;;;22.10;77.80;;;;;;5031589;28;20387;-60
2022/07/06 04:11:56;;;;;;;0.50;0.50;;;22.10;77.80;;;;;;5030367;28;20056;-59
2022/07/06 04:14:21;;;;;;;3.00;0.60;;;22.10;77.70;;;;;;5031588;28;20063;-58
2022/07/06 04:16:47;;;;;;;0.38;0.38;;;22.10;77.80;;;;;;5046359;28;20048;-59
2022/07/06 04:19:13;;;;;;;2.30;0.60;;;22.10;77.80;;;;;;5051430;28;20045;-59
2022/07/06 04:21:39;;;;;;;0.25;0.25;;;22.10;77.80;;;;;;5049582;28;20047;-59
2022/07/06 04:24:05;;;;;;;0.93;0.57;;;22.10;77.80;;;;;;5051674;28;20041;-59
2022/07/06 04:26:30;;;;;;;0.52;0.52;;;22.10;77.80;;;;;;5051021;28;20044;-59
2022/07/06 04:28:56;;;;;;;0.47;0.47;;;22.10;77.90;;;;;;5051484;28;20076;-59
2022/07/06 04:31:22;;;;;;;0.55;0.55;;;22.10;77.90;;;;;;5051178;28;20394;-59
2022/07/06 04:33:47;;;;;;;0.70;0.55;;;22.10;77.90;;;;;;5038307;28;20049;-59
2022/07/06 04:36:13;;;;;;;1.20;0.50;;;22.10;77.90;;;;;;5030308;28;20749;-59
2022/07/06 04:38:39;;;;;;;0.70;0.47;;;22.10;77.90;;;;;;5030126;28;20187;-59
2022/07/06 04:41:05;;;;;;;1.20;0.73;;;22.10;77.90;;;;;;5040158;28;20053;-60
2022/07/06 04:43:31;;;;;;;0.40;0.40;;;22.10;78.00;;;;;;5050779;28;20051;-59
2022/07/06 04:45:56;;;;;;;0.57;0.57;;;22.10;78.00;;;;;;5050978;28;20045;-59
2022/07/06 04:48:22;;;;;;;0.35;0.35;;;22.10;78.00;;;;;;5050766;28;20053;-59
2022/07/06 04:50:48;;;;;;;0.40;0.40;;;22.10;78.00;;;;;;5049479;28;20052;-59
2022/07/06 04:53:13;;;;;;;0.47;0.47;;;22.10;78.00;;;;;;5050438;28;20045;-59
2022/07/06 04:55:39;;;;;;;0.77;0.65;;;22.10;78.10;;;;;;5049458;28;20123;-59
2022/07/06 04:58:05;;;;;;;0.52;0.40;;;22.10;78.10;;;;;;5050640;28;20499;-57
2022/07/06 05:00:31;;;;;;;0.52;0.52;;;22.10;78.10;;;;;;5042832;28;20048;-57
2022/07/06 05:02:57;;;;;;;0.60;0.60;;;22.10;78.10;;;;;;5049474;28;20049;-59
2022/07/06 05:05:23;;;;;;;0.40;0.40;;;22.10;78.70;;;;;;5049611;28;20057;-59
2022/07/06 05:07:48;;;;;;;0.40;0.40;;;22.10;78.10;;;;;;5049595;28;20103;-59
2022/07/06 05:10:14;;;;;;;0.50;0.50;;;22.10;78.10;;;;;;5050446;28;20089;-59
2022/07/06 05:12:40;;;;;;;0.43;0.43;;;22.10;78.10;;;;;;5033371;28;20053;-59
2022/07/06 05:15:07;;;;;;;0.65;0.50;;;22.10;78.10;;;;;;5028980;28;20103;-60
2022/07/06 05:17:32;;;;;;;0.40;0.40;;;22.10;78.10;;;;;;5029661;28;20041;-58
2022/07/06 05:19:58;;;;;;;0.40;0.40;;;22.10;78.10;;;;;;5030338;28;20483;-58
2022/07/06 05:22:24;;;;;;;0.32;0.32;;;22.10;78.10;;;;;;5040514;28;20049;-59
2022/07/06 05:24:50;;;;;;;0.38;0.38;;;22.10;78.00;;;;;;5035149;28;20049;-59
2022/07/06 05:27:16;;;;;;;0.40;0.40;;;22.10;78.00;;;;;;5045891;28;20059;-59
2022/07/06 05:29:42;;;;;;;0.50;0.50;;;22.20;78.10;;;;;;5049641;28;20048;-59
2022/07/06 05:32:08;;;;;;;0.60;0.57;;;22.10;78.00;;;;;;5049049;28;20080;-59
2022/07/06 05:34:35;;;;;;;0.50;0.50;;;22.20;78.00;;;;;;5049574;28;20106;-58
2022/07/06 05:37:01;;;;;;;0.52;0.52;;;22.20;78.00;;;;;;5048339;28;20052;-59
2022/07/06 05:39:26;;;;;;;0.40;0.40;;;22.20;77.90;;;;;;5036037;28;20049;-59
2022/07/06 05:41:52;;;;;;;1.00;0.50;;;22.20;77.90;;;;;;5029592;28;20038;-59
2022/07/06 05:44:17;;;;;;;0.45;0.45;;;22.20;77.90;;;;;;5049851;28;20052;-59
2022/07/06 05:46:43;;;;;;;0.43;0.43;;;22.20;77.80;;;;;;5034900;28;20050;-59
2022/07/06 05:51:53;;;;;;;0.80;0.50;;;22.20;77.80;;;;;;5027770;28;20088;-59
2022/07/06 05:54:19;;;;;;;0.75;0.60;;;22.30;77.80;;;;;;5045852;28;20081;-59
2022/07/06 05:56:45;;;;;;;0.50;0.50;;;22.30;77.80;;;;;;5049222;28;20040;-59
2022/07/06 05:59:10;;;;;;;1.42;0.73;;;22.30;77.70;;;;;;5049396;28;20779;-58
2022/07/06 06:01:36;;;;;;;0.30;0.30;;;22.30;77.70;;;;;;5040785;28;20049;-58
2022/07/06 06:04:02;;;;;;;0.63;0.57;;;22.30;77.70;;;;;;5039154;28;20506;-59
2022/07/06 06:06:27;;;;;;;0.68;0.40;;;22.30;77.70;;;;;;5048214;28;20380;-59
2022/07/06 06:08:53;;;;;;;0.38;0.38;;;22.30;77.60;;;;;;5048619;28;20823;-59
2022/07/06 06:11:19;;;;;;;0.35;0.35;;;22.30;77.60;;;;;;5049340;28;20045;-59
2022/07/06 06:13:44;;;;;;;0.30;0.30;;;22.30;77.60;;;;;;5048997;28;20084;-59
2022/07/06 06:16:10;;;;;;;1.48;0.50;;;22.30;77.60;;;;;;5048793;28;20094;-59
2022/07/06 06:18:36;;;;;;;1.65;0.50;;;22.30;77.60;;;;;;5048417;28;20053;-57
2022/07/06 06:21:01;;;;;;;0.65;0.38;;;22.30;77.60;;;;;;5047228;28;20572;-59
2022/07/06 06:23:27;;;;;;;0.50;0.50;;;22.30;77.70;;;;;;5041344;28;20068;-59
2022/07/06 06:25:53;;;;;;;0.80;0.50;;;22.30;77.70;;;;;;5048496;28;20152;-59
2022/07/06 06:28:18;;;;;;;0.43;0.40;;;22.30;77.80;;;;;;5048309;28;20075;-59
2022/07/06 06:30:44;;;;;;;0.40;0.40;;;22.30;77.80;;;;;;5048235;28;20102;-59
2022/07/06 06:33:14;;;;;;;1.30;0.43;;;22.30;77.80;;;;;;5048493;28;20075;-59
2022/07/06 06:35:45;;;;;;;0.40;0.40;;;22.30;77.80;;;;;;5048050;28;20049;-59
2022/07/06 06:38:11;;;;;;;0.35;0.32;;;22.30;77.80;;;;;;5048365;28;20135;-59
2022/07/06 06:40:37;;;;;;;0.30;0.22;;;22.30;77.80;;;;;;5048956;28;20114;-58
2022/07/06 06:43:03;;;;;;;0.40;0.40;;;22.30;77.80;;;;;;5049097;28;20049;-59
2022/07/06 06:45:28;;;;;;;0.30;0.30;;;22.30;77.70;;;;;;5038673;28;20657;-59
2022/07/06 06:47:54;;;;;;;0.60;0.60;;;22.30;77.80;;;;;;5028635;28;20149;-59
2022/07/06 06:50:20;;;;;;;0.45;0.45;;;22.30;77.80;;;;;;5028280;28;20055;-59
2022/07/06 06:52:46;;;;;;;0.50;0.50;;;22.30;77.90;;;;;;5027536;28;20562;-59
2022/07/06 06:55:12;;;;;;;0.30;0.30;;;22.30;77.80;;;;;;5028811;28;20049;-59
2022/07/06 06:57:38;;;;;;;0.50;0.43;;;22.30;77.90;;;;;;5035719;28;20052;-57
2022/07/06 07:00:05;;;;;;;1.55;0.50;;;22.30;77.90;;;;;;5033239;28;20474;-60
2022/07/06 07:02:31;;;;;;;0.40;0.40;;;22.30;77.90;;;;;;5039720;28;20495;-59
2022/07/06 07:04:56;;;;;;;1.83;0.50;;;22.20;77.80;;;;;;5028029;28;20060;-59
2022/07/06 07:07:22;;;;;;;0.40;0.40;;;22.30;78.00;;;;;;5033276;28;20480;-59
2022/07/06 07:09:48;;;;;;;0.45;0.45;;;22.30;78.60;;;;;;5048158;28;20174;-59
2022/07/06 07:12:14;;;;;;;0.40;0.40;;;22.20;77.90;;;;;;5049031;28;20053;-60
2022/07/06 07:14:41;;;;;;;0.35;0.35;;;22.20;78.00;;;;;;5048415;28;20084;-57
2022/07/06 07:17:06;;;;;;;0.40;0.40;;;22.30;78.00;;;;;;5046686;28;20053;-59
2022/07/06 07:19:32;;;;;;;2.88;0.68;;;22.20;77.90;;;;;;5028945;28;20051;-59
2022/07/06 07:21:58;;;;;;;0.40;0.40;;;22.30;78.00;;;;;;5032625;28;20048;-59
2022/07/06 07:24:23;;;;;;;0.38;0.35;;;22.20;77.90;;;;;;5047454;28;20115;-59
2022/07/06 07:26:49;;;;;;;0.40;0.40;;;22.20;77.90;;;;;;5041773;28;20111;-59
2022/07/06 07:29:15;;;;;;;0.40;0.40;;;22.20;77.90;;;;;;5033428;28;20053;-59
2022/07/06 07:31:41;;;;;;;0.20;0.20;;;22.20;77.90;;;;;;5028214;28;20049;-58
2022/07/06 07:34:07;;;;;;;0.88;0.40;;;22.20;77.80;;;;;;5028703;28;20048;-59
2022/07/06 07:36:32;;;;;;;0.63;0.45;;;22.20;77.90;;;;;;5026894;28;20049;-59
2022/07/06 07:38:58;;;;;;;1.15;0.32;;;22.20;77.90;;;;;;5028091;28;20053;-59
2022/07/06 07:41:24;;;;;;;0.30;0.30;;;22.20;77.80;;;;;;5032514;28;20069;-59
2022/07/06 07:43:50;;;;;;;0.40;0.40;;;22.20;77.90;;;;;;5032040;28;20046;-59
2022/07/06 07:46:15;;;;;;;1.67;0.40;;;22.20;77.90;;;;;;5034547;28;20060;-59
2022/07/06 07:48:41;;;;;;;0.30;0.30;;;22.20;77.80;;;;;;5047667;28;20060;-58
2022/07/06 07:51:07;;;;;;;0.40;0.40;;;22.20;77.70;;;;;;5049834;28;20060;-59
2022/07/06 07:53:33;;;;;;;1.75;0.60;;;22.20;77.70;;;;;;5050750;28;20049;-59
2022/07/06 07:55:58;;;;;;;0.40;0.30;;;22.20;77.80;;;;;;5051378;28;20130;-59
2022/07/06 07:58:24;;;;;;;0.90;0.50;;;22.20;77.70;;;;;;5051789;28;20052;-59
2022/07/06 08:00:50;;;;;;;1.20;0.30;;;22.20;77.70;;;;;;5051465;28;20044;-59
2022/07/06 08:03:15;;;;;;;0.30;0.30;;;22.20;77.70;;;;;;5050780;28;20479;-59
2022/07/06 08:05:41;;;;;;;1.10;0.47;;;22.20;77.60;;;;;;5047484;28;20038;-59
2022/07/06 08:08:07;;;;;;;0.35;0.35;;;22.30;77.70;;;;;;5038442;28;20041;-58
2022/07/06 08:10:33;;;;;;;0.63;0.47;;;22.20;77.60;;;;;;5035344;28;20091;-59
2022/07/06 08:12:58;;;;;;;1.83;0.45;;;22.30;77.70;;;;;;5045158;28;20498;-58
2022/07/06 08:15:24;;;;;;;0.43;0.43;;;22.30;77.70;;;;;;5051314;28;20045;-59
2022/07/06 08:17:50;;;;;;;0.75;0.50;;;22.30;77.60;;;;;;5047458;28;20208;-59
2022/07/06 08:20:16;;;;;;;1.90;0.40;;;22.30;77.60;;;;;;5049963;28;20048;-59
2022/07/06 08:22:43;;;;;;;1.30;0.63;;;22.30;77.60;;;;;;5050006;28;20049;-59
2022/07/06 08:25:09;;;;;;;0.77;0.40;;;22.30;77.60;;;;;;5044656;28;20175;-59
2022/07/06 08:27:35;;;;;;;0.30;0.30;;;22.30;77.50;;;;;;5041193;28;20517;-59
2022/07/06 08:30:02;;;;;;;0.22;0.22;;;22.30;77.50;;;;;;5044675;28;20172;-59
2022/07/06 08:32:28;;;;;;;0.52;0.40;;;22.30;77.40;;;;;;5038786;28;20045;-59
2022/07/06 08:34:53;;;;;;;0.45;0.45;;;22.30;77.40;;;;;;5035779;28;20052;-59
2022/07/06 08:37:19;;;;;;;0.40;0.40;;;22.30;77.40;;;;;;5033440;28;20037;-58
2022/07/06 08:39:45;;;;;;;1.50;0.40;;;22.30;77.40;;;;;;5033600;28;20046;-59
2022/07/06 08:42:12;;;;;;;0.43;0.43;;;22.30;77.40;;;;;;5032523;28;20041;-59
2022/07/06 08:44:38;;;;;;;0.25;0.25;;;22.30;77.40;;;;;;5030697;28;20084;-60
2022/07/06 08:47:07;;;;;;;0.38;0.38;;;22.30;77.40;;;;;;5032438;28;20053;-59
2022/07/06 08:49:34;;;;;;;0.40;0.40;;;22.30;77.40;;;;;;5033111;28;20056;-59
2022/07/06 08:52:02;;;;;;;0.30;0.30;;;22.30;77.40;;;;;;5033129;28;20050;-59
2022/07/06 08:54:28;;;;;;;0.47;0.30;;;22.30;77.30;;;;;;5041964;28;20049;-60
2022/07/06 08:56:54;;;;;;;0.57;0.50;;;22.30;77.30;;;;;;5042449;28;20053;-59
2022/07/06 08:59:20;;;;;;;3.47;1.27;;;22.30;78.00;;;;;;5034320;28;20507;-59
2022/07/06 09:01:47;;;;;;;0.45;0.45;;;22.30;77.30;;;;;;5033640;28;20045;-60
2022/07/06 09:04:15;;;;;;;2.28;0.68;;;22.30;77.30;;;;;;5033992;28;20518;-58
2022/07/06 09:06:43;;;;;;;1.02;0.65;;;22.20;77.20;;;;;;5044772;28;20792;-58
2022/07/06 09:09:09;;;;;;;5.00;0.75;;;22.30;77.20;;;;;;5046292;28;20044;-60
2022/07/06 09:11:37;;;;;;;0.80;0.40;;;22.30;76.80;;;;;;5051460;28;20037;-60
2022/07/06 09:14:03;;;;;;;2.00;0.40;;;22.30;76.70;;;;;;5051209;28;20134;-60
2022/07/06 09:16:32;;;;;;;0.38;0.22;;;22.30;76.70;;;;;;5051406;28;20487;-60
2022/07/06 09:18:58;;;;;;;0.50;0.50;;;22.30;76.70;;;;;;5048587;28;20044;-60
2022/07/06 09:21:31;;;;;;;0.55;0.30;;;22.30;76.70;;;;;;5042964;28;20545;-60
2022/07/06 09:24:00;;;;;;;0.68;0.40;;;22.30;76.60;;;;;;5050776;28;20516;-61
2022/07/06 09:26:26;;;;;;;0.55;0.50;;;22.30;76.60;;;;;;5050559;28;20068;-60
2022/07/06 09:28:55;;;;;;;1.30;0.30;;;22.30;76.50;;;;;;5049991;28;20514;-61
2022/07/06 09:31:21;;;;;;;0.68;0.30;;;22.30;75.80;;;;;;5043216;28;20037;-61
2022/07/06 09:34:03;;;;;;;1.95;0.60;;;22.20;75.50;;;;;;5040533;28;20049;-61
2022/07/06 09:36:55;;;;;;;5.32;0.77;;;22.20;75.30;;;;;;5045717;28;20049;-60
2022/07/06 09:39:26;;;;;;;2.92;0.60;;;22.20;75.20;;;;;;5047593;28;20510;-61
2022/07/06 09:42:00;;;;;;;1.20;0.65;;;22.20;75.30;;;;;;5044987;28;20044;-61
2022/07/06 09:44:33;;;;;;;0.93;0.55;;;22.30;75.40;;;;;;5050519;28;20375;-61
2022/07/06 09:47:06;;;;;;;1.45;0.50;;;22.30;75.40;;;;;;5047175;28;20041;-60
2022/07/06 09:49:32;;;;;;;2.67;0.75;;;22.30;75.40;;;;;;5040489;28;20045;-61
2022/07/06 09:52:00;;;;;;;1.70;0.57;;;22.30;75.40;;;;;;5048479;28;20661;-60
2022/07/06 09:54:26;;;;;;;3.70;0.68;;;22.40;75.50;;;;;;5050892;28;20048;-61
2022/07/06 09:56:53;;;;;;;2.60;0.73;;;22.30;75.40;;;;;;5051042;28;20159;-60
2022/07/06 09:59:27;;;;;;;0.45;0.45;;;22.40;75.30;;;;;;5046163;28;20061;-60
2022/07/06 10:01:55;;;;;;;1.80;0.60;;;22.30;74.50;;;;;;5041225;28;20037;-60
2022/07/06 10:04:22;;;;;;;1.13;0.40;;;22.30;74.00;;;;;;5045260;28;20155;-60
2022/07/06 10:06:49;;;;;;;0.70;0.30;;;22.30;73.90;;;;;;5038822;28;20049;-61
2022/07/06 10:09:15;;;;;;;3.97;0.55;;;22.20;73.70;;;;;;5023138;28;20056;-60
2022/07/06 10:11:44;;;;;;;0.80;0.52;;;22.20;73.70;;;;;;5038646;28;20041;-61
2022/07/06 10:14:11;;;;;;;0.40;0.40;;;22.20;73.70;;;;;;5043874;28;20045;-61
2022/07/06 10:16:38;;;;;;;1.00;0.50;;;22.20;73.60;;;;;;5050377;28;20041;-61
2022/07/06 10:19:08;;;;;;;4.13;0.70;;;22.20;73.70;;;;;;5050367;28;20091;-61
2022/07/06 10:21:39;;;;;;;1.70;0.73;;;22.30;73.70;;;;;;5048517;28;20125;-60
2022/07/06 10:24:07;;;;;;;0.95;0.40;;;22.30;73.70;;;;;;5046683;28;20052;-60
2022/07/06 10:26:34;;;;;;;2.83;0.50;;;22.30;73.70;;;;;;5047508;28;20053;-60
2022/07/06 10:29:04;;;;;;;1.10;0.30;;;22.40;73.80;;;;;;5049909;28;20048;-57
2022/07/06 10:31:31;;;;;;;0.25;0.20;;;22.40;73.40;;;;;;5041305;28;20143;-61
2022/07/06 10:33:59;;;;;;;2.97;0.40;;;22.30;69.80;;;;;;5039956;28;20044;-61
2022/07/06 10:36:26;;;;;;;2.40;0.30;;;22.30;71.60;;;;;;5044150;28;20053;-61
2022/07/06 10:38:52;;;;;;;1.23;0.35;;;22.30;71.30;;;;;;5043584;28;20130;-62
2022/07/06 10:41:30;;;;;;;0.40;0.40;;;22.20;71.20;;;;;;5049979;28;20040;-62
2022/07/06 10:43:57;;;;;;;2.30;0.50;;;22.30;71.20;;;;;;5050166;28;20516;-61
2022/07/06 10:46:28;;;;;;;1.15;0.60;;;22.30;71.00;;;;;;5045512;28;20140;-62
2022/07/06 10:48:54;;;;;;;0.50;0.20;;;22.30;71.00;;;;;;5049700;28;20053;-62
2022/07/06 10:51:28;;;;;;;1.00;0.28;;;22.30;70.90;;;;;;5047777;28;20051;-61
2022/07/06 10:53:59;;;;;;;3.60;0.40;;;22.30;70.70;;;;;;5049685;28;20402;-62
2022/07/06 10:56:40;;;;;;;4.18;0.57;;;22.40;70.90;;;;;;5045573;28;20134;-62
2022/07/06 10:59:10;;;;;;;0.43;0.30;;;22.40;70.70;;;;;;5032861;28;20512;-61
2022/07/06 11:01:36;;;;;;;0.55;0.20;;;22.40;70.80;;;;;;5049917;28;20049;-61
2022/07/06 11:04:03;;;;;;;0.98;0.40;;;22.40;70.80;;;;;;5035226;28;20052;-59
2022/07/06 11:06:32;;;;;;;2.38;0.43;;;22.40;70.80;;;;;;5048245;28;20559;-62
2022/07/06 11:09:09;;;;;;;0.20;0.20;;;22.50;70.80;;;;;;5049615;28;20041;-62
2022/07/06 11:11:35;;;;;;;0.82;0.30;;;22.50;70.80;;;;;;5050043;28;20049;-62
2022/07/06 11:14:10;;;;;;;0.95;0.30;;;22.50;70.90;;;;;;5046805;28;20045;-62
2022/07/06 11:17:01;;;;;;;1.17;0.40;;;22.50;70.80;;;;;;5043021;28;20045;-62
2022/07/06 11:19:28;;;;;;;0.95;0.30;;;22.50;70.80;;;;;;5050131;28;20084;-62
2022/07/06 11:21:59;;;;;;;3.92;0.38;;;22.50;70.80;;;;;;5047747;28;20071;-60
2022/07/06 11:24:30;;;;;;;3.05;0.38;;;22.60;70.90;;;;;;5053492;28;20045;-65
2022/07/06 11:26:58;;;;;;;1.48;0.50;;;22.60;70.90;;;;;;5053942;28;20084;-63
2022/07/06 11:29:25;;;;;;;4.07;0.60;;;22.60;71.00;;;;;;5053252;28;20053;-63
2022/07/06 11:31:53;;;;;;;3.20;0.70;;;22.60;71.10;;;;;;5053539;28;20041;-66
2022/07/06 11:34:30;;;;;;;0.90;0.45;;;22.60;71.80;;;;;;5052059;28;20045;-63
2022/07/06 11:36:57;;;;;;;2.45;0.75;;;22.60;71.20;;;;;;5048150;28;20777;-60
2022/07/06 11:39:27;;;;;;;0.85;0.40;;;22.60;71.30;;;;;;5043814;28;20045;-60
2022/07/06 11:41:55;;;;;;;1.70;0.40;;;22.60;71.40;;;;;;5053102;28;20049;-61
2022/07/06 11:44:20;;;;;;;2.95;0.70;;;22.60;71.50;;;;;;5053026;28;20060;-61
2022/07/06 11:46:46;;;;;;;0.95;0.77;;;22.60;71.60;;;;;;5051947;28;20490;-60
2022/07/06 11:49:12;;;;;;;1.55;0.60;;;22.60;71.70;;;;;;5048471;28;20045;-60
2022/07/06 11:51:40;;;;;;;2.05;0.60;;;22.60;71.90;;;;;;5041816;28;20049;-61
2022/07/06 11:54:16;;;;;;;1.15;0.65;;;22.60;72.00;;;;;;5053189;28;20051;-60
2022/07/06 11:56:53;;;;;;;0.95;0.43;;;22.60;72.10;;;;;;5053467;28;20042;-61
2022/07/06 11:59:24;;;;;;;1.33;0.30;;;22.70;72.40;;;;;;5052391;28;20060;-61
2022/07/06 12:01:58;;;;;;;1.77;0.40;;;22.60;72.30;;;;;;5047430;28;20171;-60
2022/07/06 12:04:25;;;;;;;1.75;0.40;;;22.70;72.40;;;;;;5052589;28;20051;-59
2022/07/06 12:06:51;;;;;;;0.20;0.20;;;22.70;72.30;;;;;;5051131;28;20120;-61
2022/07/06 12:09:19;;;;;;;0.43;0.40;;;22.70;72.50;;;;;;5052592;28;20153;-59
2022/07/06 12:11:46;;;;;;;1.73;0.75;;;22.70;73.00;;;;;;5052916;28;20053;-63
2022/07/06 12:14:20;;;;;;;2.47;0.40;;;22.70;73.10;;;;;;5052445;28;20045;-63
2022/07/06 12:16:48;;;;;;;2.85;0.68;;;22.70;73.20;;;;;;5051598;28;20057;-62
2022/07/06 12:19:15;;;;;;;0.95;0.50;;;22.70;73.40;;;;;;5034645;28;20110;-61
2022/07/06 12:22:01;;;;;;;1.65;0.38;;;22.80;73.60;;;;;;5050187;28;20037;-59
2022/07/06 12:24:30;;;;;;;0.83;0.40;;;22.80;74.40;;;;;;5035964;28;20419;-59
2022/07/06 12:26:56;;;;;;;2.17;0.50;;;22.80;73.60;;;;;;5030690;28;20342;-61
2022/07/06 12:29:22;;;;;;;5.43;0.60;;;;;;;;;;5032532;28;20509;-59
2022/07/06 12:31:48;;;;;;;1.75;0.57;;;;;;;;;;5032700;28;20391;-59
2022/07/06 12:34:16;;;;;;;1.40;0.30;;;;;;;;;;5043141;28;20406;-58
2022/07/06 12:36:45;;;;;;;0.73;0.20;;;;;;;;;;5050899;28;20048;-58
2022/07/06 12:39:13;;;;;;;0.35;0.20;;;;;;;;;;5052767;28;20187;-59
2022/07/06 12:41:44;;;;;;;2.28;0.30;;;;;;;;;;5050994;28;20110;-59
2022/07/06 12:44:10;;;;;;;0.50;0.20;;;;;;;;;;5045543;28;20065;-59
2022/07/06 12:46:38;;;;;;;0.50;0.22;;;23.00;73.70;;;;;;5031725;28;20045;-58
2022/07/06 12:49:19;;;;;;;1.08;0.32;;;23.00;74.10;;;;;;5045931;28;20080;-59
2022/07/06 12:51:49;;;;;;;1.40;0.30;;;23.00;74.00;;;;;;5050768;28;20161;-59